sensor_id;sensor_type;location;lat;lon;timestamp;temperature;humidity
58529;DHT22;44322;52.968;5.816;2022-07-23T00:01:20;14.90;99.90
58529;DHT22;44322;52.968;5.816;2022-07-23T00:03:46;14.80;99.90
58529;DHT22;44322;52.968;5.816;2022-07-23T00:06:12;14.80;99.90
58529;DHT22;44322;52.968;5.816;2022-07-23T00:08:38;14.80;99.90
58529;DHT22;44322;52.968;5.816;2022-07-23T00:11:04;14.80;99.90
58529;DHT22;44322;52.968;5.816;2022-07-23T00:13:29;14.80;99.90
58529;DHT22;44322;52.968;5.816;2022-07-23T00:15:55;14.80;99.90
58529;DHT22;44322;52.968;5.816;2022-07-23T00:18:21;14.80;99.90
58529;DHT22;44322;52.968;5.816;2022-07-23T00:20:47;14.80;99.90
58529;DHT22;44322;52.968;5.816;2022-07-23T00:23:13;14.80;99.90
58529;DHT22;44322;52.968;5.816;2022-07-23T00:25:39;14.80;99.90
58529;DHT22;44322;52.968;5.816;2022-07-23T00:28:05;14.80;99.90
58529;DHT22;44322;52.968;5.816;2022-07-23T00:30:31;14.90;99.90
58529;DHT22;44322;52.968;5.816;2022-07-23T00:33:02;14.90;99.90
58529;DHT22;44322;52.968;5.816;2022-07-23T00:35:31;14.90;99.90
58529;DHT22;44322;52.968;5.816;2022-07-23T00:37:58;14.90;99.90
58529;DHT22;44322;52.968;5.816;2022-07-23T00:40:25;14.90;99.90
58529;DHT22;44322;52.968;5.816;2022-07-23T00:42:51;14.90;99.90
58529;DHT22;44322;52.968;5.816;2022-07-23T00:45:17;14.90;99.90
58529;DHT22;44322;52.968;5.816;2022-07-23T00:47:43;14.90;99.90
58529;DHT22;44322;52.968;5.816;2022-07-23T00:50:10;14.90;99.90
58529;DHT22;44322;52.968;5.816;2022-07-23T00:52:37;14.90;99.90
58529;DHT22;44322;52.968;5.816;2022-07-23T00:55:05;14.90;99.90
58529;DHT22;44322;52.968;5.816;2022-07-23T00:57:31;14.90;99.90
58529;DHT22;44322;52.968;5.816;2022-07-23T00:59:57;14.90;99.90
58529;DHT22;44322;52.968;5.816;2022-07-23T01:02:24;14.90;99.90
58529;DHT22;44322;52.968;5.816;2022-07-23T01:04:50;15.00;99.90
58529;DHT22;44322;52.968;5.816;2022-07-23T01:07:17;15.00;99.90
58529;DHT22;44322;52.968;5.816;2022-07-23T01:09:44;15.10;99.90
58529;DHT22;44322;52.968;5.816;2022-07-23T01:12:11;15.10;99.90
58529;DHT22;44322;52.968;5.816;2022-07-23T01:14:37;15.10;99.90
58529;DHT22;44322;52.968;5.816;2022-07-23T01:17:03;15.10;99.90
58529;DHT22;44322;52.968;5.816;2022-07-23T01:19:29;15.10;99.90
58529;DHT22;44322;52.968;5.816;2022-07-23T01:21:57;15.20;99.90
58529;DHT22;44322;52.968;5.816;2022-07-23T01:24:23;15.10;99.90
58529;DHT22;44322;52.968;5.816;2022-07-23T01:27:07;15.10;99.90
58529;DHT22;44322;52.968;5.816;2022-07-23T01:29:36;15.10;99.90
58529;DHT22;44322;52.968;5.816;2022-07-23T01:32:07;15.00;99.90
58529;DHT22;44322;52.968;5.816;2022-07-23T01:34:32;15.00;99.90
58529;DHT22;44322;52.968;5.816;2022-07-23T01:36:58;14.90;99.90
58529;DHT22;44322;52.968;5.816;2022-07-23T01:39:24;14.90;99.90
58529;DHT22;44322;52.968;5.816;2022-07-23T01:41:51;14.90;99.90
58529;DHT22;44322;52.968;5.816;2022-07-23T01:44:18;14.80;99.90
58529;DHT22;44322;52.968;5.816;2022-07-23T01:46:44;14.80;99.90
58529;DHT22;44322;52.968;5.816;2022-07-23T01:49:10;14.70;99.90
58529;DHT22;44322;52.968;5.816;2022-07-23T01:51:54;14.60;99.90
58529;DHT22;44322;52.968;5.816;2022-07-23T01:54:33;14.60;99.90
58529;DHT22;44322;52.968;5.816;2022-07-23T01:57:00;14.50;99.90
58529;DHT22;44322;52.968;5.816;2022-07-23T01:59:26;14.50;99.90
58529;DHT22;44322;52.968;5.816;2022-07-23T02:01:52;14.50;99.90
58529;DHT22;44322;52.968;5.816;2022-07-23T02:04:19;14.40;99.90
58529;DHT22;44322;52.968;5.816;2022-07-23T02:06:46;14.40;99.90
58529;DHT22;44322;52.968;5.816;2022-07-23T02:09:12;14.30;99.90
58529;DHT22;44322;52.968;5.816;2022-07-23T02:11:38;14.30;99.90
58529;DHT22;44322;52.968;5.816;2022-07-23T02:14:04;14.30;99.90
58529;DHT22;44322;52.968;5.816;2022-07-23T02:16:30;14.30;99.90
58529;DHT22;44322;52.968;5.816;2022-07-23T02:19:02;14.20;99.90
58529;DHT22;44322;52.968;5.816;2022-07-23T02:21:27;14.20;99.90
58529;DHT22;44322;52.968;5.816;2022-07-23T02:23:53;14.10;99.90
58529;DHT22;44322;52.968;5.816;2022-07-23T02:26:19;14.10;99.90
58529;DHT22;44322;52.968;5.816;2022-07-23T02:28:46;14.10;99.90
58529;DHT22;44322;52.968;5.816;2022-07-23T02:31:12;14.10;99.90
58529;DHT22;44322;52.968;5.816;2022-07-23T02:33:38;14.10;99.90
58529;DHT22;44322;52.968;5.816;2022-07-23T02:36:04;14.10;99.90
58529;DHT22;44322;52.968;5.816;2022-07-23T02:38:30;14.00;99.90
58529;DHT22;44322;52.968;5.816;2022-07-23T02:40:56;14.00;99.90
58529;DHT22;44322;52.968;5.816;2022-07-23T02:43:22;14.00;99.90
58529;DHT22;44322;52.968;5.816;2022-07-23T02:45:48;14.00;99.90
58529;DHT22;44322;52.968;5.816;2022-07-23T02:48:14;14.00;99.90
58529;DHT22;44322;52.968;5.816;2022-07-23T02:50:43;13.90;99.90
58529;DHT22;44322;52.968;5.816;2022-07-23T02:53:11;13.90;99.90
58529;DHT22;44322;52.968;5.816;2022-07-23T02:55:38;13.90;99.90
58529;DHT22;44322;52.968;5.816;2022-07-23T02:58:04;13.90;99.90
58529;DHT22;44322;52.968;5.816;2022-07-23T03:00:30;13.80;99.90
58529;DHT22;44322;52.968;5.816;2022-07-23T03:02:56;13.80;99.90
58529;DHT22;44322;52.968;5.816;2022-07-23T03:05:22;13.80;99.90
58529;DHT22;44322;52.968;5.816;2022-07-23T03:07:48;13.80;99.90
58529;DHT22;44322;52.968;5.816;2022-07-23T03:10:14;13.70;99.90
58529;DHT22;44322;52.968;5.816;2022-07-23T03:12:40;13.70;99.90
58529;DHT22;44322;52.968;5.816;2022-07-23T03:15:06;13.70;99.90
58529;DHT22;44322;52.968;5.816;2022-07-23T03:17:32;13.60;99.90
58529;DHT22;44322;52.968;5.816;2022-07-23T03:19:58;13.60;99.90
58529;DHT22;44322;52.968;5.816;2022-07-23T03:22:24;13.60;99.90
58529;DHT22;44322;52.968;5.816;2022-07-23T03:24:50;13.60;99.90
58529;DHT22;44322;52.968;5.816;2022-07-23T03:27:42;13.50;99.90
58529;DHT22;44322;52.968;5.816;2022-07-23T03:30:09;13.50;99.90
58529;DHT22;44322;52.968;5.816;2022-07-23T03:32:35;13.50;99.90
58529;DHT22;44322;52.968;5.816;2022-07-23T03:35:01;13.50;99.90
58529;DHT22;44322;52.968;5.816;2022-07-23T03:37:27;13.50;99.90
58529;DHT22;44322;52.968;5.816;2022-07-23T03:39:56;13.50;99.90
58529;DHT22;44322;52.968;5.816;2022-07-23T03:42:22;13.40;99.90
58529;DHT22;44322;52.968;5.816;2022-07-23T03:44:47;13.50;99.90
58529;DHT22;44322;52.968;5.816;2022-07-23T03:47:13;13.50;99.90
58529;DHT22;44322;52.968;5.816;2022-07-23T03:49:39;13.40;99.90
58529;DHT22;44322;52.968;5.816;2022-07-23T03:52:05;13.50;99.90
58529;DHT22;44322;52.968;5.816;2022-07-23T03:54:31;13.40;99.90
58529;DHT22;44322;52.968;5.816;2022-07-23T03:56:57;13.50;99.90
58529;DHT22;44322;52.968;5.816;2022-07-23T03:59:23;13.50;99.90
58529;DHT22;44322;52.968;5.816;2022-07-23T04:01:48;13.40;99.90
58529;DHT22;44322;52.968;5.816;2022-07-23T04:04:15;13.50;99.90
58529;DHT22;44322;52.968;5.816;2022-07-23T04:06:42;13.50;99.90
58529;DHT22;44322;52.968;5.816;2022-07-23T04:09:08;13.50;99.90
58529;DHT22;44322;52.968;5.816;2022-07-23T04:11:33;13.50;99.90
58529;DHT22;44322;52.968;5.816;2022-07-23T04:14:00;13.50;99.90
58529;DHT22;44322;52.968;5.816;2022-07-23T04:16:26;13.60;99.90
58529;DHT22;44322;52.968;5.816;2022-07-23T04:18:52;13.60;99.90
58529;DHT22;44322;52.968;5.816;2022-07-23T04:21:20;13.80;99.90
58529;DHT22;44322;52.968;5.816;2022-07-23T04:23:47;13.80;99.90
58529;DHT22;44322;52.968;5.816;2022-07-23T04:26:14;13.90;99.90
58529;DHT22;44322;52.968;5.816;2022-07-23T04:28:39;14.00;99.90
58529;DHT22;44322;52.968;5.816;2022-07-23T04:31:05;14.10;99.90
58529;DHT22;44322;52.968;5.816;2022-07-23T04:33:33;14.20;99.90
58529;DHT22;44322;52.968;5.816;2022-07-23T04:36:04;14.20;99.90
58529;DHT22;44322;52.968;5.816;2022-07-23T04:38:30;14.30;99.90
58529;DHT22;44322;52.968;5.816;2022-07-23T04:41:00;14.40;99.90
58529;DHT22;44322;52.968;5.816;2022-07-23T04:43:26;14.50;99.90
58529;DHT22;44322;52.968;5.816;2022-07-23T04:45:53;14.60;99.90
58529;DHT22;44322;52.968;5.816;2022-07-23T04:48:19;14.70;99.90
58529;DHT22;44322;52.968;5.816;2022-07-23T04:50:47;14.70;99.90
58529;DHT22;44322;52.968;5.816;2022-07-23T04:53:22;14.70;99.90
58529;DHT22;44322;52.968;5.816;2022-07-23T04:55:50;14.70;99.90
58529;DHT22;44322;52.968;5.816;2022-07-23T04:58:16;14.70;99.90
58529;DHT22;44322;52.968;5.816;2022-07-23T05:00:41;14.70;99.90
58529;DHT22;44322;52.968;5.816;2022-07-23T05:03:07;14.70;99.90
58529;DHT22;44322;52.968;5.816;2022-07-23T05:05:33;14.70;99.90
58529;DHT22;44322;52.968;5.816;2022-07-23T05:08:07;14.80;99.90
58529;DHT22;44322;52.968;5.816;2022-07-23T05:10:35;14.80;99.90
58529;DHT22;44322;52.968;5.816;2022-07-23T05:13:01;14.80;99.90
58529;DHT22;44322;52.968;5.816;2022-07-23T05:15:27;14.80;99.90
58529;DHT22;44322;52.968;5.816;2022-07-23T05:17:53;14.90;99.90
58529;DHT22;44322;52.968;5.816;2022-07-23T05:20:19;14.90;99.90
58529;DHT22;44322;52.968;5.816;2022-07-23T05:22:45;14.90;99.90
58529;DHT22;44322;52.968;5.816;2022-07-23T05:25:11;15.00;99.90
58529;DHT22;44322;52.968;5.816;2022-07-23T05:27:38;15.10;99.90
58529;DHT22;44322;52.968;5.816;2022-07-23T05:30:04;15.10;99.90
58529;DHT22;44322;52.968;5.816;2022-07-23T05:32:33;15.20;99.90
58529;DHT22;44322;52.968;5.816;2022-07-23T05:35:10;15.30;99.90
58529;DHT22;44322;52.968;5.816;2022-07-23T05:37:39;15.40;99.90
58529;DHT22;44322;52.968;5.816;2022-07-23T05:40:07;15.50;99.90
58529;DHT22;44322;52.968;5.816;2022-07-23T05:42:38;15.60;99.90
58529;DHT22;44322;52.968;5.816;2022-07-23T05:45:05;15.70;99.90
58529;DHT22;44322;52.968;5.816;2022-07-23T05:47:45;15.70;99.90
58529;DHT22;44322;52.968;5.816;2022-07-23T05:50:14;15.70;99.90
58529;DHT22;44322;52.968;5.816;2022-07-23T05:52:44;15.80;99.90
58529;DHT22;44322;52.968;5.816;2022-07-23T05:55:28;15.80;99.90
58529;DHT22;44322;52.968;5.816;2022-07-23T05:57:58;15.80;99.90
58529;DHT22;44322;52.968;5.816;2022-07-23T06:00:25;15.90;99.90
58529;DHT22;44322;52.968;5.816;2022-07-23T06:02:51;15.90;99.90
58529;DHT22;44322;52.968;5.816;2022-07-23T06:05:17;16.00;99.90
58529;DHT22;44322;52.968;5.816;2022-07-23T06:07:44;16.00;99.90
58529;DHT22;44322;52.968;5.816;2022-07-23T06:10:10;16.10;99.90
58529;DHT22;44322;52.968;5.816;2022-07-23T06:12:36;16.10;99.90
58529;DHT22;44322;52.968;5.816;2022-07-23T06:15:03;16.10;99.90
58529;DHT22;44322;52.968;5.816;2022-07-23T06:17:30;16.10;99.90
58529;DHT22;44322;52.968;5.816;2022-07-23T06:19:56;16.10;99.90
58529;DHT22;44322;52.968;5.816;2022-07-23T06:22:22;16.10;99.90
58529;DHT22;44322;52.968;5.816;2022-07-23T06:24:48;16.10;99.90
58529;DHT22;44322;52.968;5.816;2022-07-23T06:27:14;16.10;99.90
58529;DHT22;44322;52.968;5.816;2022-07-23T06:29:40;16.10;99.90
58529;DHT22;44322;52.968;5.816;2022-07-23T06:32:07;16.10;99.90
58529;DHT22;44322;52.968;5.816;2022-07-23T06:34:33;16.10;99.90
58529;DHT22;44322;52.968;5.816;2022-07-23T06:36:59;16.20;99.90
58529;DHT22;44322;52.968;5.816;2022-07-23T06:39:26;16.20;99.90
58529;DHT22;44322;52.968;5.816;2022-07-23T06:41:52;16.20;99.90
58529;DHT22;44322;52.968;5.816;2022-07-23T06:44:18;16.20;99.90
58529;DHT22;44322;52.968;5.816;2022-07-23T06:46:47;16.20;99.90
58529;DHT22;44322;52.968;5.816;2022-07-23T06:49:12;16.30;99.90
58529;DHT22;44322;52.968;5.816;2022-07-23T06:51:38;16.30;99.90
58529;DHT22;44322;52.968;5.816;2022-07-23T06:54:04;16.30;99.90
58529;DHT22;44322;52.968;5.816;2022-07-23T06:56:30;16.30;99.90
58529;DHT22;44322;52.968;5.816;2022-07-23T06:58:56;16.30;99.90
58529;DHT22;44322;52.968;5.816;2022-07-23T07:01:22;16.40;99.90
58529;DHT22;44322;52.968;5.816;2022-07-23T07:03:48;16.40;99.90
58529;DHT22;44322;52.968;5.816;2022-07-23T07:06:14;16.40;99.90
58529;DHT22;44322;52.968;5.816;2022-07-23T07:08:40;16.40;99.90
58529;DHT22;44322;52.968;5.816;2022-07-23T07:11:05;16.40;99.90
58529;DHT22;44322;52.968;5.816;2022-07-23T07:13:31;16.40;99.90
58529;DHT22;44322;52.968;5.816;2022-07-23T07:15:57;16.50;99.90
58529;DHT22;44322;52.968;5.816;2022-07-23T07:18:23;16.50;99.90
58529;DHT22;44322;52.968;5.816;2022-07-23T07:20:49;16.50;99.90
58529;DHT22;44322;52.968;5.816;2022-07-23T07:23:14;16.50;99.90
58529;DHT22;44322;52.968;5.816;2022-07-23T07:25:40;16.60;99.90
58529;DHT22;44322;52.968;5.816;2022-07-23T07:28:06;16.60;99.90
58529;DHT22;44322;52.968;5.816;2022-07-23T07:30:32;16.60;99.90
58529;DHT22;44322;52.968;5.816;2022-07-23T07:32:58;16.60;99.90
58529;DHT22;44322;52.968;5.816;2022-07-23T07:35:24;16.70;99.90
58529;DHT22;44322;52.968;5.816;2022-07-23T07:37:50;16.70;99.90
58529;DHT22;44322;52.968;5.816;2022-07-23T07:40:16;16.80;99.90
58529;DHT22;44322;52.968;5.816;2022-07-23T07:42:50;16.90;99.90
58529;DHT22;44322;52.968;5.816;2022-07-23T07:45:16;17.00;99.90
58529;DHT22;44322;52.968;5.816;2022-07-23T07:47:43;17.10;99.90
58529;DHT22;44322;52.968;5.816;2022-07-23T07:50:09;17.30;99.90
58529;DHT22;44322;52.968;5.816;2022-07-23T07:52:35;17.50;99.90
58529;DHT22;44322;52.968;5.816;2022-07-23T07:55:06;17.60;99.90
58529;DHT22;44322;52.968;5.816;2022-07-23T07:57:33;17.80;99.90
58529;DHT22;44322;52.968;5.816;2022-07-23T07:59:58;18.00;99.90
58529;DHT22;44322;52.968;5.816;2022-07-23T08:02:24;18.10;99.90
58529;DHT22;44322;52.968;5.816;2022-07-23T08:04:50;18.30;99.90
58529;DHT22;44322;52.968;5.816;2022-07-23T08:07:16;18.40;99.90
58529;DHT22;44322;52.968;5.816;2022-07-23T08:09:42;18.50;99.90
58529;DHT22;44322;52.968;5.816;2022-07-23T08:12:08;18.50;99.90
58529;DHT22;44322;52.968;5.816;2022-07-23T08:14:34;18.60;99.90
58529;DHT22;44322;52.968;5.816;2022-07-23T08:16:59;18.70;99.90
58529;DHT22;44322;52.968;5.816;2022-07-23T08:19:25;18.70;99.90
58529;DHT22;44322;52.968;5.816;2022-07-23T08:21:51;18.80;99.90
58529;DHT22;44322;52.968;5.816;2022-07-23T08:24:17;18.80;99.90
58529;DHT22;44322;52.968;5.816;2022-07-23T08:26:43;18.90;99.90
58529;DHT22;44322;52.968;5.816;2022-07-23T08:29:08;19.00;99.90
58529;DHT22;44322;52.968;5.816;2022-07-23T08:31:35;19.10;99.90
58529;DHT22;44322;52.968;5.816;2022-07-23T08:34:00;19.20;99.90
58529;DHT22;44322;52.968;5.816;2022-07-23T08:36:28;19.20;99.90
58529;DHT22;44322;52.968;5.816;2022-07-23T08:38:58;19.30;99.90
58529;DHT22;44322;52.968;5.816;2022-07-23T08:41:25;19.30;99.90
58529;DHT22;44322;52.968;5.816;2022-07-23T08:43:51;19.40;99.90
58529;DHT22;44322;52.968;5.816;2022-07-23T08:46:19;19.40;99.90
58529;DHT22;44322;52.968;5.816;2022-07-23T08:48:48;19.50;99.90
58529;DHT22;44322;52.968;5.816;2022-07-23T08:51:14;19.60;99.90
58529;DHT22;44322;52.968;5.816;2022-07-23T08:53:44;19.60;99.90
58529;DHT22;44322;52.968;5.816;2022-07-23T08:56:10;19.60;99.90
58529;DHT22;44322;52.968;5.816;2022-07-23T08:58:36;19.60;99.90
58529;DHT22;44322;52.968;5.816;2022-07-23T09:01:02;19.60;99.90
58529;DHT22;44322;52.968;5.816;2022-07-23T09:03:33;19.60;99.90
58529;DHT22;44322;52.968;5.816;2022-07-23T09:06:00;19.60;99.90
58529;DHT22;44322;52.968;5.816;2022-07-23T09:08:56;19.50;99.90
58529;DHT22;44322;52.968;5.816;2022-07-23T09:11:22;19.50;99.90
58529;DHT22;44322;52.968;5.816;2022-07-23T09:16:33;19.60;99.90
58529;DHT22;44322;52.968;5.816;2022-07-23T09:19:00;19.70;99.90
58529;DHT22;44322;52.968;5.816;2022-07-23T09:21:30;19.70;99.90
58529;DHT22;44322;52.968;5.816;2022-07-23T09:24:03;19.80;99.90
58529;DHT22;44322;52.968;5.816;2022-07-23T09:34:30;20.20;99.90
58529;DHT22;44322;52.968;5.816;2022-07-23T09:37:09;20.20;99.90
58529;DHT22;44322;52.968;5.816;2022-07-23T09:39:35;20.20;99.90
58529;DHT22;44322;52.968;5.816;2022-07-23T09:42:24;20.20;99.90
58529;DHT22;44322;52.968;5.816;2022-07-23T09:44:53;20.20;99.90
58529;DHT22;44322;52.968;5.816;2022-07-23T09:47:20;20.30;99.90
58529;DHT22;44322;52.968;5.816;2022-07-23T09:50:07;20.40;99.90
58529;DHT22;44322;52.968;5.816;2022-07-23T09:52:44;20.50;99.40
58529;DHT22;44322;52.968;5.816;2022-07-23T09:55:12;20.50;98.80
58529;DHT22;44322;52.968;5.816;2022-07-23T09:57:40;20.50;99.20
58529;DHT22;44322;52.968;5.816;2022-07-23T10:00:08;20.50;99.90
58529;DHT22;44322;52.968;5.816;2022-07-23T10:02:35;20.50;99.70
58529;DHT22;44322;52.968;5.816;2022-07-23T10:05:20;20.60;99.90
58529;DHT22;44322;52.968;5.816;2022-07-23T10:08:12;20.70;99.90
58529;DHT22;44322;52.968;5.816;2022-07-23T10:10:56;20.90;99.90
58529;DHT22;44322;52.968;5.816;2022-07-23T10:13:35;21.00;99.90
58529;DHT22;44322;52.968;5.816;2022-07-23T10:16:19;21.10;99.90
58529;DHT22;44322;52.968;5.816;2022-07-23T10:18:49;21.20;99.20
58529;DHT22;44322;52.968;5.816;2022-07-23T10:21:30;21.20;97.90
58529;DHT22;44322;52.968;5.816;2022-07-23T10:24:23;21.20;97.60
58529;DHT22;44322;52.968;5.816;2022-07-23T10:37:51;21.50;97.40
58529;DHT22;44322;52.968;5.816;2022-07-23T10:40:21;21.60;96.20
58529;DHT22;44322;52.968;5.816;2022-07-23T10:42:52;21.60;95.90
58529;DHT22;44322;52.968;5.816;2022-07-23T10:45:27;21.70;96.80
58529;DHT22;44322;52.968;5.816;2022-07-23T10:47:53;21.70;95.90
58529;DHT22;44322;52.968;5.816;2022-07-23T10:50:20;21.70;95.20
58529;DHT22;44322;52.968;5.816;2022-07-23T10:57:57;21.90;94.80
58529;DHT22;44322;52.968;5.816;2022-07-23T11:00:25;22.00;94.70
58529;DHT22;44322;52.968;5.816;2022-07-23T11:02:53;22.10;94.50
58529;DHT22;44322;52.968;5.816;2022-07-23T11:05:22;22.00;93.80
58529;DHT22;44322;52.968;5.816;2022-07-23T11:10:34;22.30;94.90
58529;DHT22;44322;52.968;5.816;2022-07-23T11:32:17;23.40;85.00
58529;DHT22;44322;52.968;5.816;2022-07-23T11:34:48;23.20;90.00
58529;DHT22;44322;52.968;5.816;2022-07-23T11:37:36;23.40;89.70
58529;DHT22;44322;52.968;5.816;2022-07-23T11:40:09;23.40;85.60
58529;DHT22;44322;52.968;5.816;2022-07-23T11:42:58;23.40;87.70
58529;DHT22;44322;52.968;5.816;2022-07-23T11:45:48;23.60;90.70
58529;DHT22;44322;52.968;5.816;2022-07-23T11:48:24;23.80;83.90
58529;DHT22;44322;52.968;5.816;2022-07-23T11:50:51;24.10;85.00
58529;DHT22;44322;52.968;5.816;2022-07-23T11:53:21;24.60;81.50
58529;DHT22;44322;52.968;5.816;2022-07-23T11:55:47;25.00;75.80
58529;DHT22;44322;52.968;5.816;2022-07-23T11:58:13;25.20;80.70
58529;DHT22;44322;52.968;5.816;2022-07-23T12:00:41;25.50;76.60
58529;DHT22;44322;52.968;5.816;2022-07-23T12:03:07;25.60;73.00
58529;DHT22;44322;52.968;5.816;2022-07-23T12:05:37;25.90;75.90
58529;DHT22;44322;52.968;5.816;2022-07-23T12:08:06;26.20;69.10
58529;DHT22;44322;52.968;5.816;2022-07-23T12:10:43;26.20;65.00
58529;DHT22;44322;52.968;5.816;2022-07-23T12:13:17;25.90;64.80
58529;DHT22;44322;52.968;5.816;2022-07-23T12:15:46;25.50;63.80
58529;DHT22;44322;52.968;5.816;2022-07-23T12:18:16;25.40;69.30
58529;DHT22;44322;52.968;5.816;2022-07-23T12:20:44;25.40;68.30
58529;DHT22;44322;52.968;5.816;2022-07-23T12:23:12;25.70;67.50
58529;DHT22;44322;52.968;5.816;2022-07-23T12:25:41;26.30;63.50
58529;DHT22;44322;52.968;5.816;2022-07-23T12:28:13;26.70;61.20
58529;DHT22;44322;52.968;5.816;2022-07-23T12:30:53;26.70;60.70
58529;DHT22;44322;52.968;5.816;2022-07-23T12:35:53;27.40;60.60
58529;DHT22;44322;52.968;5.816;2022-07-23T12:38:21;27.70;56.90
58529;DHT22;44322;52.968;5.816;2022-07-23T12:40:53;28.00;56.00
58529;DHT22;44322;52.968;5.816;2022-07-23T12:43:23;28.40;55.30
58529;DHT22;44322;52.968;5.816;2022-07-23T12:45:51;28.60;53.90
58529;DHT22;44322;52.968;5.816;2022-07-23T12:48:35;28.40;52.90
58529;DHT22;44322;52.968;5.816;2022-07-23T12:51:06;28.00;52.80
58529;DHT22;44322;52.968;5.816;2022-07-23T12:53:47;28.00;54.40
58529;DHT22;44322;52.968;5.816;2022-07-23T12:56:16;28.50;51.80
58529;DHT22;44322;52.968;5.816;2022-07-23T12:58:52;28.70;51.50
58529;DHT22;44322;52.968;5.816;2022-07-23T13:09:02;30.40;48.60
58529;DHT22;44322;52.968;5.816;2022-07-23T13:11:29;30.60;48.80
58529;DHT22;44322;52.968;5.816;2022-07-23T13:13:55;31.00;48.20
58529;DHT22;44322;52.968;5.816;2022-07-23T13:16:21;31.20;46.60
58529;DHT22;44322;52.968;5.816;2022-07-23T13:18:47;31.30;46.20
58529;DHT22;44322;52.968;5.816;2022-07-23T13:21:12;31.50;45.60
58529;DHT22;44322;52.968;5.816;2022-07-23T13:23:38;31.40;44.70
58529;DHT22;44322;52.968;5.816;2022-07-23T13:26:04;31.50;44.40
58529;DHT22;44322;52.968;5.816;2022-07-23T13:28:30;31.70;44.10
58529;DHT22;44322;52.968;5.816;2022-07-23T13:30:56;31.70;42.80
58529;DHT22;44322;52.968;5.816;2022-07-23T13:33:23;31.60;42.80
58529;DHT22;44322;52.968;5.816;2022-07-23T13:35:51;31.50;43.00
58529;DHT22;44322;52.968;5.816;2022-07-23T13:38:18;31.50;42.60
58529;DHT22;44322;52.968;5.816;2022-07-23T13:40:46;31.70;43.00
58529;DHT22;44322;52.968;5.816;2022-07-23T13:43:15;32.10;43.00
58529;DHT22;44322;52.968;5.816;2022-07-23T13:45:42;32.60;42.20
58529;DHT22;44322;52.968;5.816;2022-07-23T13:48:08;32.90;41.50
58529;DHT22;44322;52.968;5.816;2022-07-23T13:50:35;33.20;41.00
58529;DHT22;44322;52.968;5.816;2022-07-23T13:53:03;33.40;40.20
58529;DHT22;44322;52.968;5.816;2022-07-23T13:55:30;33.30;39.90
58529;DHT22;44322;52.968;5.816;2022-07-23T13:57:56;33.30;40.90
58529;DHT22;44322;52.968;5.816;2022-07-23T14:00:22;33.40;40.30
58529;DHT22;44322;52.968;5.816;2022-07-23T14:02:47;33.50;40.20
58529;DHT22;44322;52.968;5.816;2022-07-23T14:05:13;33.60;40.30
58529;DHT22;44322;52.968;5.816;2022-07-23T14:07:40;33.80;39.80
58529;DHT22;44322;52.968;5.816;2022-07-23T14:10:06;33.70;41.00
58529;DHT22;44322;52.968;5.816;2022-07-23T14:12:32;33.60;42.00
58529;DHT22;44322;52.968;5.816;2022-07-23T14:14:58;33.40;41.20
58529;DHT22;44322;52.968;5.816;2022-07-23T14:17:24;33.40;39.60
58529;DHT22;44322;52.968;5.816;2022-07-23T14:19:52;33.40;39.70
58529;DHT22;44322;52.968;5.816;2022-07-23T14:22:21;33.40;39.60
58529;DHT22;44322;52.968;5.816;2022-07-23T14:24:48;33.50;39.60
58529;DHT22;44322;52.968;5.816;2022-07-23T14:27:13;33.60;39.50
58529;DHT22;44322;52.968;5.816;2022-07-23T14:29:39;33.20;40.30
58529;DHT22;44322;52.968;5.816;2022-07-23T14:32:05;32.60;41.60
58529;DHT22;44322;52.968;5.816;2022-07-23T14:34:32;32.00;41.50
58529;DHT22;44322;52.968;5.816;2022-07-23T14:36:58;31.20;42.20
58529;DHT22;44322;52.968;5.816;2022-07-23T14:39:25;30.60;43.10
58529;DHT22;44322;52.968;5.816;2022-07-23T14:41:51;30.10;43.60
58529;DHT22;44322;52.968;5.816;2022-07-23T14:44:17;29.60;44.80
58529;DHT22;44322;52.968;5.816;2022-07-23T14:46:43;29.20;44.60
58529;DHT22;44322;52.968;5.816;2022-07-23T14:49:09;28.80;45.40
58529;DHT22;44322;52.968;5.816;2022-07-23T14:51:35;28.60;46.40
58529;DHT22;44322;52.968;5.816;2022-07-23T14:54:03;28.40;46.70
58529;DHT22;44322;52.968;5.816;2022-07-23T14:56:29;28.20;47.70
58529;DHT22;44322;52.968;5.816;2022-07-23T14:58:55;27.90;47.90
58529;DHT22;44322;52.968;5.816;2022-07-23T15:01:22;27.60;47.80
58529;DHT22;44322;52.968;5.816;2022-07-23T15:03:48;27.40;49.10
58529;DHT22;44322;52.968;5.816;2022-07-23T15:06:16;27.10;48.90
58529;DHT22;44322;52.968;5.816;2022-07-23T15:08:42;26.90;49.10
58529;DHT22;44322;52.968;5.816;2022-07-23T15:11:08;26.70;50.10
58529;DHT22;44322;52.968;5.816;2022-07-23T15:13:36;26.50;51.20
58529;DHT22;44322;52.968;5.816;2022-07-23T15:16:03;26.40;51.50
58529;DHT22;44322;52.968;5.816;2022-07-23T15:18:29;26.30;51.50
58529;DHT22;44322;52.968;5.816;2022-07-23T15:20:55;26.20;52.30
58529;DHT22;44322;52.968;5.816;2022-07-23T15:23:20;26.10;53.70
58529;DHT22;44322;52.968;5.816;2022-07-23T15:25:47;26.10;55.00
58529;DHT22;44322;52.968;5.816;2022-07-23T15:28:13;26.10;55.70
58529;DHT22;44322;52.968;5.816;2022-07-23T15:30:39;26.10;56.00
58529;DHT22;44322;52.968;5.816;2022-07-23T15:33:05;26.00;56.40
58529;DHT22;44322;52.968;5.816;2022-07-23T15:35:31;26.00;56.60
58529;DHT22;44322;52.968;5.816;2022-07-23T15:37:57;26.00;56.40
58529;DHT22;44322;52.968;5.816;2022-07-23T15:40:24;25.90;56.50
58529;DHT22;44322;52.968;5.816;2022-07-23T15:42:49;25.90;56.90
58529;DHT22;44322;52.968;5.816;2022-07-23T15:45:15;25.80;56.80
58529;DHT22;44322;52.968;5.816;2022-07-23T15:47:42;25.80;57.40
58529;DHT22;44322;52.968;5.816;2022-07-23T15:50:08;25.80;58.20
58529;DHT22;44322;52.968;5.816;2022-07-23T15:52:35;25.70;58.60
58529;DHT22;44322;52.968;5.816;2022-07-23T15:55:02;25.70;59.60
58529;DHT22;44322;52.968;5.816;2022-07-23T15:57:28;25.60;58.90
58529;DHT22;44322;52.968;5.816;2022-07-23T15:59:54;25.60;60.10
58529;DHT22;44322;52.968;5.816;2022-07-23T16:02:22;25.50;60.00
58529;DHT22;44322;52.968;5.816;2022-07-23T16:04:49;25.40;61.90
58529;DHT22;44322;52.968;5.816;2022-07-23T16:07:19;25.40;60.00
58529;DHT22;44322;52.968;5.816;2022-07-23T16:09:45;25.30;59.20
58529;DHT22;44322;52.968;5.816;2022-07-23T16:12:12;25.20;60.00
58529;DHT22;44322;52.968;5.816;2022-07-23T16:14:38;25.20;59.50
58529;DHT22;44322;52.968;5.816;2022-07-23T16:17:04;25.20;58.50
58529;DHT22;44322;52.968;5.816;2022-07-23T16:19:32;25.10;61.50
58529;DHT22;44322;52.968;5.816;2022-07-23T16:22:09;25.10;64.20
58529;DHT22;44322;52.968;5.816;2022-07-23T16:24:36;25.00;65.60
58529;DHT22;44322;52.968;5.816;2022-07-23T16:27:02;25.10;64.20
58529;DHT22;44322;52.968;5.816;2022-07-23T16:29:28;25.10;63.00
58529;DHT22;44322;52.968;5.816;2022-07-23T16:31:54;25.00;61.10
58529;DHT22;44322;52.968;5.816;2022-07-23T16:34:20;25.10;62.60